sensor_id;sensor_type;location;lat;lon;timestamp;P1;durP1;ratioP1;P2;durP2;ratioP2
60006;SDS011;45863;50.336;3.536;2022-10-17T00:00:08;11.03;;;5.17;;
60006;SDS011;45863;50.336;3.536;2022-10-17T00:02:33;9.75;;;4.43;;
60006;SDS011;45863;50.336;3.536;2022-10-17T00:04:59;11.67;;;5.57;;
60006;SDS011;45863;50.336;3.536;2022-10-17T00:07:24;9.20;;;5.25;;
60006;SDS011;45863;50.336;3.536;2022-10-17T00:09:49;11.32;;;5.53;;
60006;SDS011;45863;50.336;3.536;2022-10-17T00:12:14;9.00;;;5.37;;
60006;SDS011;45863;50.336;3.536;2022-10-17T00:14:40;9.30;;;5.00;;
60006;SDS011;45863;50.336;3.536;2022-10-17T00:17:05;8.85;;;5.60;;
60006;SDS011;45863;50.336;3.536;2022-10-17T00:19:30;8.90;;;4.77;;
60006;SDS011;45863;50.336;3.536;2022-10-17T00:21:55;10.90;;;5.07;;
60006;SDS011;45863;50.336;3.536;2022-10-17T00:24:20;10.07;;;5.40;;
60006;SDS011;45863;50.336;3.536;2022-10-17T00:26:46;10.23;;;5.40;;
60006;SDS011;45863;50.336;3.536;2022-10-17T00:29:11;12.60;;;5.60;;
60006;SDS011;45863;50.336;3.536;2022-10-17T00:31:36;9.17;;;5.43;;
60006;SDS011;45863;50.336;3.536;2022-10-17T00:34:01;11.10;;;5.50;;
60006;SDS011;45863;50.336;3.536;2022-10-17T00:36:26;12.50;;;6.90;;
60006;SDS011;45863;50.336;3.536;2022-10-17T00:38:53;13.73;;;6.47;;
60006;SDS011;45863;50.336;3.536;2022-10-17T00:41:20;8.60;;;5.50;;
60006;SDS011;45863;50.336;3.536;2022-10-17T00:43:53;10.25;;;5.45;;
60006;SDS011;45863;50.336;3.536;2022-10-17T00:46:19;9.18;;;5.50;;
60006;SDS011;45863;50.336;3.536;2022-10-17T00:48:45;9.48;;;5.63;;
60006;SDS011;45863;50.336;3.536;2022-10-17T00:51:12;8.63;;;5.18;;
60006;SDS011;45863;50.336;3.536;2022-10-17T00:53:38;10.45;;;5.60;;
60006;SDS011;45863;50.336;3.536;2022-10-17T00:56:04;13.35;;;5.85;;
60006;SDS011;45863;50.336;3.536;2022-10-17T00:58:29;10.55;;;5.68;;
60006;SDS011;45863;50.336;3.536;2022-10-17T01:00:54;11.10;;;6.05;;
60006;SDS011;45863;50.336;3.536;2022-10-17T01:03:20;10.73;;;5.23;;
60006;SDS011;45863;50.336;3.536;2022-10-17T01:05:45;9.40;;;5.50;;
60006;SDS011;45863;50.336;3.536;2022-10-17T01:08:10;10.50;;;5.55;;
60006;SDS011;45863;50.336;3.536;2022-10-17T01:13:12;9.98;;;6.07;;
60006;SDS011;45863;50.336;3.536;2022-10-17T01:15:49;9.70;;;5.72;;
60006;SDS011;45863;50.336;3.536;2022-10-17T01:18:35;14.77;;;5.97;;
60006;SDS011;45863;50.336;3.536;2022-10-17T01:31:11;10.00;;;6.20;;
60006;SDS011;45863;50.336;3.536;2022-10-17T01:36:58;9.82;;;5.78;;
60006;SDS011;45863;50.336;3.536;2022-10-17T01:41:55;10.50;;;5.55;;
60006;SDS011;45863;50.336;3.536;2022-10-17T01:45:09;11.35;;;5.57;;
60006;SDS011;45863;50.336;3.536;2022-10-17T01:47:09;11.63;;;5.75;;
60006;SDS011;45863;50.336;3.536;2022-10-17T01:49:36;9.68;;;6.00;;
60006;SDS011;45863;50.336;3.536;2022-10-17T01:52:06;9.45;;;5.32;;
60006;SDS011;45863;50.336;3.536;2022-10-17T01:54:43;9.00;;;5.70;;
60006;SDS011;45863;50.336;3.536;2022-10-17T01:57:52;11.07;;;5.72;;
60006;SDS011;45863;50.336;3.536;2022-10-17T01:59:58;9.45;;;5.30;;
60006;SDS011;45863;50.336;3.536;2022-10-17T02:02:24;10.45;;;5.68;;
60006;SDS011;45863;50.336;3.536;2022-10-17T02:04:50;11.40;;;5.55;;
60006;SDS011;45863;50.336;3.536;2022-10-17T02:07:16;8.35;;;5.22;;
60006;SDS011;45863;50.336;3.536;2022-10-17T02:09:41;9.10;;;6.13;;
60006;SDS011;45863;50.336;3.536;2022-10-17T02:17:13;9.13;;;5.63;;
60006;SDS011;45863;50.336;3.536;2022-10-17T02:27:54;8.80;;;5.80;;
60006;SDS011;45863;50.336;3.536;2022-10-17T02:32:51;10.98;;;5.00;;
60006;SDS011;45863;50.336;3.536;2022-10-17T02:35:18;12.38;;;6.70;;
60006;SDS011;45863;50.336;3.536;2022-10-17T02:37:44;11.00;;;5.38;;
60006;SDS011;45863;50.336;3.536;2022-10-17T02:40:11;10.05;;;5.63;;
60006;SDS011;45863;50.336;3.536;2022-10-17T02:42:39;10.82;;;5.65;;
60006;SDS011;45863;50.336;3.536;2022-10-17T02:45:06;11.82;;;5.47;;
60006;SDS011;45863;50.336;3.536;2022-10-17T02:47:33;11.32;;;5.15;;
60006;SDS011;45863;50.336;3.536;2022-10-17T02:50:00;13.45;;;5.60;;
60006;SDS011;45863;50.336;3.536;2022-10-17T02:52:27;11.23;;;5.68;;
60006;SDS011;45863;50.336;3.536;2022-10-17T02:54:56;7.75;;;5.30;;
60006;SDS011;45863;50.336;3.536;2022-10-17T02:57:30;9.32;;;5.03;;
60006;SDS011;45863;50.336;3.536;2022-10-17T02:59:58;10.32;;;5.57;;
60006;SDS011;45863;50.336;3.536;2022-10-17T03:02:24;10.20;;;5.63;;
60006;SDS011;45863;50.336;3.536;2022-10-17T03:04:50;9.95;;;5.15;;
60006;SDS011;45863;50.336;3.536;2022-10-17T03:07:15;11.65;;;5.32;;
60006;SDS011;45863;50.336;3.536;2022-10-17T03:09:40;10.17;;;5.50;;
60006;SDS011;45863;50.336;3.536;2022-10-17T03:12:05;10.03;;;5.23;;
60006;SDS011;45863;50.336;3.536;2022-10-17T03:14:31;10.27;;;5.50;;
60006;SDS011;45863;50.336;3.536;2022-10-17T03:16:56;13.77;;;5.70;;
60006;SDS011;45863;50.336;3.536;2022-10-17T03:19:21;9.30;;;5.27;;
60006;SDS011;45863;50.336;3.536;2022-10-17T03:21:46;9.40;;;5.23;;
60006;SDS011;45863;50.336;3.536;2022-10-17T03:24:12;9.70;;;5.38;;
60006;SDS011;45863;50.336;3.536;2022-10-17T03:26:37;10.30;;;5.60;;
60006;SDS011;45863;50.336;3.536;2022-10-17T03:29:02;10.80;;;5.95;;
60006;SDS011;45863;50.336;3.536;2022-10-17T03:31:27;9.43;;;5.23;;
60006;SDS011;45863;50.336;3.536;2022-10-17T03:33:53;15.15;;;5.85;;
60006;SDS011;45863;50.336;3.536;2022-10-17T03:36:18;10.53;;;5.77;;
60006;SDS011;45863;50.336;3.536;2022-10-17T03:38:44;11.25;;;5.63;;
60006;SDS011;45863;50.336;3.536;2022-10-17T03:41:09;9.48;;;5.05;;
60006;SDS011;45863;50.336;3.536;2022-10-17T03:43:35;10.07;;;5.00;;
60006;SDS011;45863;50.336;3.536;2022-10-17T03:46:00;9.57;;;4.80;;
60006;SDS011;45863;50.336;3.536;2022-10-17T03:48:26;10.35;;;5.28;;
60006;SDS011;45863;50.336;3.536;2022-10-17T03:50:51;11.30;;;5.82;;
60006;SDS011;45863;50.336;3.536;2022-10-17T03:53:16;12.48;;;5.68;;
60006;SDS011;45863;50.336;3.536;2022-10-17T03:55:42;12.00;;;5.43;;
60006;SDS011;45863;50.336;3.536;2022-10-17T03:58:07;10.20;;;5.15;;
60006;SDS011;45863;50.336;3.536;2022-10-17T04:00:34;10.52;;;5.68;;
60006;SDS011;45863;50.336;3.536;2022-10-17T04:02:59;12.45;;;6.10;;
60006;SDS011;45863;50.336;3.536;2022-10-17T04:05:25;12.07;;;6.20;;
60006;SDS011;45863;50.336;3.536;2022-10-17T04:07:50;12.03;;;5.40;;
60006;SDS011;45863;50.336;3.536;2022-10-17T04:10:15;9.90;;;5.73;;
60006;SDS011;45863;50.336;3.536;2022-10-17T04:12:40;11.07;;;5.97;;
60006;SDS011;45863;50.336;3.536;2022-10-17T04:15:06;8.67;;;5.80;;
60006;SDS011;45863;50.336;3.536;2022-10-17T04:17:31;13.85;;;5.45;;
60006;SDS011;45863;50.336;3.536;2022-10-17T04:19:57;13.05;;;6.35;;
60006;SDS011;45863;50.336;3.536;2022-10-17T04:22:22;12.60;;;6.32;;
60006;SDS011;45863;50.336;3.536;2022-10-17T04:24:48;10.20;;;6.40;;
60006;SDS011;45863;50.336;3.536;2022-10-17T04:27:13;11.27;;;6.47;;
60006;SDS011;45863;50.336;3.536;2022-10-17T04:29:38;10.43;;;6.23;;
60006;SDS011;45863;50.336;3.536;2022-10-17T04:32:03;9.70;;;5.80;;
60006;SDS011;45863;50.336;3.536;2022-10-17T04:34:28;11.43;;;6.20;;
60006;SDS011;45863;50.336;3.536;2022-10-17T04:36:54;10.07;;;6.40;;
60006;SDS011;45863;50.336;3.536;2022-10-17T04:39:19;8.73;;;6.40;;
60006;SDS011;45863;50.336;3.536;2022-10-17T04:41:44;10.35;;;7.03;;
60006;SDS011;45863;50.336;3.536;2022-10-17T04:44:09;11.93;;;6.20;;
60006;SDS011;45863;50.336;3.536;2022-10-17T04:46:35;11.27;;;6.60;;
60006;SDS011;45863;50.336;3.536;2022-10-17T04:49:00;11.93;;;6.60;;
60006;SDS011;45863;50.336;3.536;2022-10-17T04:51:25;13.73;;;6.60;;
60006;SDS011;45863;50.336;3.536;2022-10-17T04:53:50;11.60;;;6.38;;
60006;SDS011;45863;50.336;3.536;2022-10-17T04:56:19;11.75;;;6.35;;
60006;SDS011;45863;50.336;3.536;2022-10-17T04:58:45;11.00;;;6.05;;
60006;SDS011;45863;50.336;3.536;2022-10-17T05:01:12;9.70;;;5.78;;
60006;SDS011;45863;50.336;3.536;2022-10-17T05:03:37;11.52;;;6.45;;
60006;SDS011;45863;50.336;3.536;2022-10-17T05:06:07;9.15;;;6.07;;
60006;SDS011;45863;50.336;3.536;2022-10-17T05:08:32;11.88;;;5.95;;
60006;SDS011;45863;50.336;3.536;2022-10-17T05:10:58;10.05;;;5.75;;
60006;SDS011;45863;50.336;3.536;2022-10-17T05:13:23;9.40;;;6.07;;
60006;SDS011;45863;50.336;3.536;2022-10-17T05:15:48;11.25;;;5.75;;
60006;SDS011;45863;50.336;3.536;2022-10-17T05:18:14;9.20;;;5.72;;
60006;SDS011;45863;50.336;3.536;2022-10-17T05:20:39;10.32;;;5.80;;
60006;SDS011;45863;50.336;3.536;2022-10-17T05:23:04;12.80;;;5.97;;
60006;SDS011;45863;50.336;3.536;2022-10-17T05:25:29;9.10;;;5.73;;
60006;SDS011;45863;50.336;3.536;2022-10-17T05:27:55;11.73;;;7.00;;
60006;SDS011;45863;50.336;3.536;2022-10-17T05:30:20;12.33;;;5.87;;
60006;SDS011;45863;50.336;3.536;2022-10-17T05:32:45;10.87;;;6.10;;
60006;SDS011;45863;50.336;3.536;2022-10-17T05:35:10;10.87;;;5.33;;
60006;SDS011;45863;50.336;3.536;2022-10-17T05:37:35;8.60;;;5.60;;
60006;SDS011;45863;50.336;3.536;2022-10-17T05:40:01;13.25;;;5.85;;
60006;SDS011;45863;50.336;3.536;2022-10-17T05:42:26;9.32;;;5.25;;
60006;SDS011;45863;50.336;3.536;2022-10-17T05:44:51;9.02;;;5.18;;
60006;SDS011;45863;50.336;3.536;2022-10-17T05:47:16;11.23;;;5.57;;
60006;SDS011;45863;50.336;3.536;2022-10-17T05:49:41;10.75;;;5.20;;
60006;SDS011;45863;50.336;3.536;2022-10-17T05:52:07;9.38;;;5.50;;
60006;SDS011;45863;50.336;3.536;2022-10-17T05:54:32;10.10;;;5.37;;
60006;SDS011;45863;50.336;3.536;2022-10-17T05:56:57;10.20;;;5.35;;
60006;SDS011;45863;50.336;3.536;2022-10-17T05:59:25;10.27;;;5.93;;
60006;SDS011;45863;50.336;3.536;2022-10-17T06:01:51;11.93;;;5.63;;
60006;SDS011;45863;50.336;3.536;2022-10-17T06:04:16;10.40;;;6.03;;
60006;SDS011;45863;50.336;3.536;2022-10-17T06:06:41;8.88;;;5.50;;
60006;SDS011;45863;50.336;3.536;2022-10-17T06:09:07;12.55;;;6.07;;
60006;SDS011;45863;50.336;3.536;2022-10-17T06:11:32;12.00;;;5.97;;
60006;SDS011;45863;50.336;3.536;2022-10-17T06:13:58;11.55;;;6.10;;
60006;SDS011;45863;50.336;3.536;2022-10-17T06:16:23;17.23;;;6.57;;
60006;SDS011;45863;50.336;3.536;2022-10-17T06:18:48;12.63;;;6.40;;
60006;SDS011;45863;50.336;3.536;2022-10-17T06:21:14;14.13;;;7.13;;
60006;SDS011;45863;50.336;3.536;2022-10-17T06:23:41;14.85;;;7.03;;
60006;SDS011;45863;50.336;3.536;2022-10-17T06:26:06;12.45;;;7.20;;
60006;SDS011;45863;50.336;3.536;2022-10-17T06:28:32;11.45;;;6.65;;
60006;SDS011;45863;50.336;3.536;2022-10-17T06:30:57;12.32;;;6.90;;
60006;SDS011;45863;50.336;3.536;2022-10-17T06:33:22;13.83;;;6.67;;
60006;SDS011;45863;50.336;3.536;2022-10-17T06:35:51;10.70;;;6.60;;
60006;SDS011;45863;50.336;3.536;2022-10-17T06:38:16;11.82;;;6.85;;
60006;SDS011;45863;50.336;3.536;2022-10-17T06:40:41;14.03;;;7.50;;
60006;SDS011;45863;50.336;3.536;2022-10-17T06:43:06;15.50;;;7.27;;
60006;SDS011;45863;50.336;3.536;2022-10-17T06:45:32;12.67;;;7.60;;
60006;SDS011;45863;50.336;3.536;2022-10-17T06:47:57;15.85;;;7.32;;
60006;SDS011;45863;50.336;3.536;2022-10-17T06:50:22;15.27;;;8.03;;
60006;SDS011;45863;50.336;3.536;2022-10-17T06:52:49;16.27;;;8.57;;
60006;SDS011;45863;50.336;3.536;2022-10-17T06:55:15;15.90;;;8.45;;
60006;SDS011;45863;50.336;3.536;2022-10-17T06:57:40;16.38;;;8.30;;
60006;SDS011;45863;50.336;3.536;2022-10-17T07:00:06;13.20;;;8.37;;
60006;SDS011;45863;50.336;3.536;2022-10-17T07:02:31;15.90;;;8.23;;
60006;SDS011;45863;50.336;3.536;2022-10-17T07:04:56;16.47;;;9.17;;
60006;SDS011;45863;50.336;3.536;2022-10-17T07:07:21;14.67;;;8.80;;
60006;SDS011;45863;50.336;3.536;2022-10-17T07:09:47;18.90;;;9.30;;
60006;SDS011;45863;50.336;3.536;2022-10-17T07:12:12;20.23;;;9.17;;
60006;SDS011;45863;50.336;3.536;2022-10-17T07:14:37;14.52;;;9.02;;
60006;SDS011;45863;50.336;3.536;2022-10-17T07:17:02;17.43;;;8.77;;
60006;SDS011;45863;50.336;3.536;2022-10-17T07:19:27;15.40;;;8.70;;
60006;SDS011;45863;50.336;3.536;2022-10-17T07:21:53;20.13;;;9.10;;
60006;SDS011;45863;50.336;3.536;2022-10-17T07:24:18;19.13;;;10.53;;
60006;SDS011;45863;50.336;3.536;2022-10-17T07:26:43;14.15;;;9.45;;
60006;SDS011;45863;50.336;3.536;2022-10-17T07:29:09;25.60;;;11.55;;
60006;SDS011;45863;50.336;3.536;2022-10-17T07:31:34;21.55;;;11.93;;
60006;SDS011;45863;50.336;3.536;2022-10-17T07:33:59;18.60;;;11.43;;
60006;SDS011;45863;50.336;3.536;2022-10-17T07:36:25;19.88;;;11.30;;
60006;SDS011;45863;50.336;3.536;2022-10-17T07:38:50;20.98;;;12.27;;
60006;SDS011;45863;50.336;3.536;2022-10-17T07:41:15;21.17;;;10.63;;
60006;SDS011;45863;50.336;3.536;2022-10-17T07:43:40;19.55;;;11.60;;
60006;SDS011;45863;50.336;3.536;2022-10-17T07:46:07;22.33;;;13.73;;
60006;SDS011;45863;50.336;3.536;2022-10-17T07:48:32;22.35;;;11.23;;
60006;SDS011;45863;50.336;3.536;2022-10-17T07:51:00;18.77;;;11.55;;
60006;SDS011;45863;50.336;3.536;2022-10-17T07:53:26;18.10;;;10.35;;
60006;SDS011;45863;50.336;3.536;2022-10-17T07:55:51;18.15;;;11.40;;
60006;SDS011;45863;50.336;3.536;2022-10-17T07:58:16;24.40;;;12.80;;
60006;SDS011;45863;50.336;3.536;2022-10-17T08:00:41;21.92;;;11.20;;
60006;SDS011;45863;50.336;3.536;2022-10-17T08:03:08;18.33;;;12.48;;
60006;SDS011;45863;50.336;3.536;2022-10-17T08:05:34;21.40;;;12.68;;
60006;SDS011;45863;50.336;3.536;2022-10-17T08:07:59;22.30;;;12.00;;
60006;SDS011;45863;50.336;3.536;2022-10-17T08:10:25;19.33;;;11.37;;
60006;SDS011;45863;50.336;3.536;2022-10-17T08:12:53;17.88;;;10.82;;
60006;SDS011;45863;50.336;3.536;2022-10-17T08:15:19;22.20;;;10.48;;
60006;SDS011;45863;50.336;3.536;2022-10-17T08:17:44;16.38;;;10.48;;
60006;SDS011;45863;50.336;3.536;2022-10-17T08:20:10;15.68;;;10.63;;
60006;SDS011;45863;50.336;3.536;2022-10-17T08:22:35;17.80;;;9.95;;
60006;SDS011;45863;50.336;3.536;2022-10-17T08:25:00;19.35;;;10.82;;
60006;SDS011;45863;50.336;3.536;2022-10-17T08:27:25;17.17;;;10.63;;
60006;SDS011;45863;50.336;3.536;2022-10-17T08:29:52;18.55;;;10.60;;
60006;SDS011;45863;50.336;3.536;2022-10-17T08:32:21;16.90;;;10.05;;
60006;SDS011;45863;50.336;3.536;2022-10-17T08:34:48;17.75;;;10.77;;
60006;SDS011;45863;50.336;3.536;2022-10-17T08:37:14;17.35;;;10.60;;
60006;SDS011;45863;50.336;3.536;2022-10-17T08:39:39;16.70;;;9.93;;
60006;SDS011;45863;50.336;3.536;2022-10-17T08:42:26;17.83;;;9.93;;
60006;SDS011;45863;50.336;3.536;2022-10-17T08:47:41;18.45;;;10.05;;
60006;SDS011;45863;50.336;3.536;2022-10-17T08:50:10;17.90;;;9.20;;
60006;SDS011;45863;50.336;3.536;2022-10-17T08:57:46;17.23;;;9.37;;
60006;SDS011;45863;50.336;3.536;2022-10-17T09:00:21;16.70;;;8.98;;
60006;SDS011;45863;50.336;3.536;2022-10-17T09:02:53;16.10;;;8.05;;
60006;SDS011;45863;50.336;3.536;2022-10-17T09:11:14;15.05;;;7.72;;
60006;SDS011;45863;50.336;3.536;2022-10-17T09:13:52;18.98;;;7.47;;
60006;SDS011;45863;50.336;3.536;2022-10-17T09:21:39;16.73;;;7.57;;
60006;SDS011;45863;50.336;3.536;2022-10-17T09:24:09;11.73;;;7.07;;
60006;SDS011;45863;50.336;3.536;2022-10-17T09:26:36;13.27;;;6.93;;
60006;SDS011;45863;50.336;3.536;2022-10-17T09:29:04;13.68;;;7.47;;
60006;SDS011;45863;50.336;3.536;2022-10-17T09:31:38;12.25;;;6.85;;
60006;SDS011;45863;50.336;3.536;2022-10-17T09:34:07;12.13;;;7.95;;
60006;SDS011;45863;50.336;3.536;2022-10-17T09:36:35;14.90;;;8.88;;
60006;SDS011;45863;50.336;3.536;2022-10-17T09:39:01;15.73;;;8.30;;
60006;SDS011;45863;50.336;3.536;2022-10-17T09:46:34;13.38;;;8.50;;
60006;SDS011;45863;50.336;3.536;2022-10-17T09:49:05;14.82;;;9.05;;
60006;SDS011;45863;50.336;3.536;2022-10-17T09:51:30;14.38;;;9.48;;
60006;SDS011;45863;50.336;3.536;2022-10-17T09:53:58;15.30;;;8.50;;
60006;SDS011;45863;50.336;3.536;2022-10-17T09:56:25;14.38;;;8.60;;
60006;SDS011;45863;50.336;3.536;2022-10-17T09:58:51;16.15;;;8.75;;
60006;SDS011;45863;50.336;3.536;2022-10-17T10:03:46;13.68;;;7.93;;
60006;SDS011;45863;50.336;3.536;2022-10-17T10:11:13;15.65;;;8.27;;
60006;SDS011;45863;50.336;3.536;2022-10-17T10:13:38;16.27;;;8.40;;
60006;SDS011;45863;50.336;3.536;2022-10-17T10:16:15;13.63;;;9.20;;
60006;SDS011;45863;50.336;3.536;2022-10-17T10:18:40;16.67;;;7.80;;
60006;SDS011;45863;50.336;3.536;2022-10-17T10:21:16;17.88;;;8.40;;
60006;SDS011;45863;50.336;3.536;2022-10-17T10:23:42;15.30;;;8.48;;
60006;SDS011;45863;50.336;3.536;2022-10-17T10:26:17;17.02;;;8.13;;
60006;SDS011;45863;50.336;3.536;2022-10-17T10:28:49;14.23;;;8.18;;
60006;SDS011;45863;50.336;3.536;2022-10-17T10:31:15;13.90;;;8.10;;
60006;SDS011;45863;50.336;3.536;2022-10-17T10:33:41;19.00;;;8.88;;
60006;SDS011;45863;50.336;3.536;2022-10-17T10:36:07;17.45;;;9.45;;
60006;SDS011;45863;50.336;3.536;2022-10-17T10:38:33;14.43;;;8.52;;
60006;SDS011;45863;50.336;3.536;2022-10-17T10:41:03;16.00;;;9.00;;
60006;SDS011;45863;50.336;3.536;2022-10-17T10:45:57;13.68;;;8.48;;
60006;SDS011;45863;50.336;3.536;2022-10-17T10:48:35;11.70;;;7.72;;
60006;SDS011;45863;50.336;3.536;2022-10-17T11:03:58;18.47;;;7.87;;
60006;SDS011;45863;50.336;3.536;2022-10-17T11:06:26;13.57;;;7.15;;
60006;SDS011;45863;50.336;3.536;2022-10-17T11:08:58;14.57;;;8.45;;
60006;SDS011;45863;50.336;3.536;2022-10-17T11:11:27;15.55;;;7.57;;
60006;SDS011;45863;50.336;3.536;2022-10-17T11:14:01;14.45;;;7.93;;
60006;SDS011;45863;50.336;3.536;2022-10-17T11:16:30;16.42;;;7.85;;
60006;SDS011;45863;50.336;3.536;2022-10-17T11:19:12;13.20;;;7.43;;
60006;SDS011;45863;50.336;3.536;2022-10-17T11:24:24;13.65;;;7.43;;
60006;SDS011;45863;50.336;3.536;2022-10-17T11:26:53;11.75;;;7.70;;
60006;SDS011;45863;50.336;3.536;2022-10-17T11:29:19;14.18;;;7.32;;
60006;SDS011;45863;50.336;3.536;2022-10-17T11:31:46;11.93;;;6.72;;
60006;SDS011;45863;50.336;3.536;2022-10-17T11:34:17;11.85;;;5.93;;
60006;SDS011;45863;50.336;3.536;2022-10-17T11:36:45;10.00;;;7.03;;
60006;SDS011;45863;50.336;3.536;2022-10-17T11:39:15;11.98;;;6.40;;
60006;SDS011;45863;50.336;3.536;2022-10-17T11:41:44;12.38;;;6.85;;
60006;SDS011;45863;50.336;3.536;2022-10-17T11:46:58;12.27;;;6.35;;
60006;SDS011;45863;50.336;3.536;2022-10-17T11:49:29;13.38;;;6.40;;
60006;SDS011;45863;50.336;3.536;2022-10-17T11:52:09;11.68;;;5.90;;
60006;SDS011;45863;50.336;3.536;2022-10-17T11:54:40;11.52;;;5.18;;
60006;SDS011;45863;50.336;3.536;2022-10-17T11:57:16;9.15;;;5.82;;
60006;SDS011;45863;50.336;3.536;2022-10-17T12:02:34;7.47;;;4.90;;
60006;SDS011;45863;50.336;3.536;2022-10-17T12:12:32;8.45;;;4.88;;
60006;SDS011;45863;50.336;3.536;2022-10-17T12:17:36;7.22;;;4.47;;
60006;SDS011;45863;50.336;3.536;2022-10-17T12:22:46;9.27;;;3.40;;
60006;SDS011;45863;50.336;3.536;2022-10-17T12:25:15;8.05;;;3.60;;
60006;SDS011;45863;50.336;3.536;2022-10-17T12:27:48;6.47;;;3.50;;
60006;SDS011;45863;50.336;3.536;2022-10-17T12:33:25;10.85;;;3.33;;
60006;SDS011;45863;50.336;3.536;2022-10-17T12:35:29;5.60;;;3.00;;
60006;SDS011;45863;50.336;3.536;2022-10-17T12:45:43;7.90;;;2.63;;
60006;SDS011;45863;50.336;3.536;2022-10-17T12:48:08;5.75;;;2.50;;
60006;SDS011;45863;50.336;3.536;2022-10-17T12:53:18;6.45;;;2.70;;
60006;SDS011;45863;50.336;3.536;2022-10-17T12:55:44;4.10;;;2.00;;
60006;SDS011;45863;50.336;3.536;2022-10-17T12:58:11;5.18;;;2.28;;
60006;SDS011;45863;50.336;3.536;2022-10-17T13:00:42;6.82;;;2.42;;
60006;SDS011;45863;50.336;3.536;2022-10-17T13:03:12;5.38;;;2.30;;
60006;SDS011;45863;50.336;3.536;2022-10-17T13:05:39;5.55;;;2.75;;
60006;SDS011;45863;50.336;3.536;2022-10-17T13:08:05;6.38;;;2.22;;
60006;SDS011;45863;50.336;3.536;2022-10-17T13:10:35;4.38;;;2.25;;
60006;SDS011;45863;50.336;3.536;2022-10-17T13:13:18;7.70;;;2.55;;
60006;SDS011;45863;50.336;3.536;2022-10-17T13:15:51;6.32;;;2.42;;
60006;SDS011;45863;50.336;3.536;2022-10-17T13:18:21;5.68;;;2.60;;
60006;SDS011;45863;50.336;3.536;2022-10-17T13:23:24;5.97;;;3.13;;
60006;SDS011;45863;50.336;3.536;2022-10-17T13:26:06;5.03;;;2.80;;
60006;SDS011;45863;50.336;3.536;2022-10-17T13:28:35;6.38;;;2.75;;
60006;SDS011;45863;50.336;3.536;2022-10-17T13:31:00;6.10;;;2.80;;
60006;SDS011;45863;50.336;3.536;2022-10-17T13:33:36;6.30;;;2.60;;
60006;SDS011;45863;50.336;3.536;2022-10-17T13:36:03;6.22;;;2.50;;
60006;SDS011;45863;50.336;3.536;2022-10-17T13:38:31;5.47;;;3.20;;
60006;SDS011;45863;50.336;3.536;2022-10-17T13:40:57;7.93;;;3.00;;
60006;SDS011;45863;50.336;3.536;2022-10-17T13:43:22;7.65;;;3.38;;
60006;SDS011;45863;50.336;3.536;2022-10-17T13:45:55;8.27;;;2.90;;
60006;SDS011;45863;50.336;3.536;2022-10-17T13:48:24;5.35;;;2.80;;
60006;SDS011;45863;50.336;3.536;2022-10-17T13:50:51;9.05;;;3.05;;
60006;SDS011;45863;50.336;3.536;2022-10-17T13:53:19;6.00;;;2.70;;
60006;SDS011;45863;50.336;3.536;2022-10-17T13:55:51;6.45;;;2.63;;
60006;SDS011;45863;50.336;3.536;2022-10-17T13:58:16;4.72;;;2.67;;
60006;SDS011;45863;50.336;3.536;2022-10-17T14:00:45;7.73;;;3.37;;
60006;SDS011;45863;50.336;3.536;2022-10-17T14:03:11;6.47;;;3.05;;
60006;SDS011;45863;50.336;3.536;2022-10-17T14:05:56;5.47;;;2.80;;
60006;SDS011;45863;50.336;3.536;2022-10-17T14:08:21;10.07;;;3.53;;
60006;SDS011;45863;50.336;3.536;2022-10-17T14:10:46;5.68;;;2.90;;
60006;SDS011;45863;50.336;3.536;2022-10-17T14:13:19;9.10;;;3.47;;
60006;SDS011;45863;50.336;3.536;2022-10-17T14:15:45;6.68;;;2.88;;
60006;SDS011;45863;50.336;3.536;2022-10-17T14:18:16;7.38;;;3.35;;
60006;SDS011;45863;50.336;3.536;2022-10-17T14:20:46;5.85;;;3.38;;
60006;SDS011;45863;50.336;3.536;2022-10-17T14:26:05;5.85;;;2.92;;
60006;SDS011;45863;50.336;3.536;2022-10-17T14:28:31;8.25;;;3.45;;
60006;SDS011;45863;50.336;3.536;2022-10-17T14:31:08;7.10;;;2.90;;
60006;SDS011;45863;50.336;3.536;2022-10-17T14:33:34;7.47;;;3.42;;
60006;SDS011;45863;50.336;3.536;2022-10-17T14:36:00;7.65;;;2.75;;
60006;SDS011;45863;50.336;3.536;2022-10-17T14:38:27;7.68;;;3.20;;
60006;SDS011;45863;50.336;3.536;2022-10-17T14:40:59;6.35;;;2.75;;
60006;SDS011;45863;50.336;3.536;2022-10-17T14:43:26;6.97;;;2.60;;
60006;SDS011;45863;50.336;3.536;2022-10-17T14:45:52;6.57;;;3.42;;
60006;SDS011;45863;50.336;3.536;2022-10-17T14:48:21;7.70;;;3.22;;
60006;SDS011;45863;50.336;3.536;2022-10-17T14:53:31;8.93;;;2.97;;
60006;SDS011;45863;50.336;3.536;2022-10-17T14:55:58;5.70;;;2.97;;
60006;SDS011;45863;50.336;3.536;2022-10-17T14:58:27;7.18;;;2.92;;
60006;SDS011;45863;50.336;3.536;2022-10-17T15:00:53;6.03;;;3.10;;
60006;SDS011;45863;50.336;3.536;2022-10-17T15:03:18;9.32;;;3.78;;
60006;SDS011;45863;50.336;3.536;2022-10-17T15:05:47;7.38;;;3.50;;
60006;SDS011;45863;50.336;3.536;2022-10-17T15:08:13;7.20;;;3.15;;
60006;SDS011;45863;50.336;3.536;2022-10-17T15:10:39;7.10;;;2.72;;
60006;SDS011;45863;50.336;3.536;2022-10-17T15:13:06;6.05;;;3.38;;
60006;SDS011;45863;50.336;3.536;2022-10-17T15:15:31;7.38;;;3.05;;
60006;SDS011;45863;50.336;3.536;2022-10-17T15:17:57;6.53;;;3.17;;
60006;SDS011;45863;50.336;3.536;2022-10-17T15:20:23;6.70;;;3.17;;
60006;SDS011;45863;50.336;3.536;2022-10-17T15:22:51;8.13;;;3.75;;
60006;SDS011;45863;50.336;3.536;2022-10-17T15:25:16;7.05;;;3.30;;
60006;SDS011;45863;50.336;3.536;2022-10-17T15:27:41;8.53;;;3.90;;
60006;SDS011;45863;50.336;3.536;2022-10-17T15:30:13;7.43;;;4.03;;
60006;SDS011;45863;50.336;3.536;2022-10-17T15:32:40;6.88;;;4.00;;
60006;SDS011;45863;50.336;3.536;2022-10-17T15:35:05;7.63;;;4.20;;
60006;SDS011;45863;50.336;3.536;2022-10-17T15:37:32;7.78;;;4.28;;
60006;SDS011;45863;50.336;3.536;2022-10-17T15:39:57;7.90;;;4.32;;
60006;SDS011;45863;50.336;3.536;2022-10-17T15:42:29;9.73;;;4.63;;
60006;SDS011;45863;50.336;3.536;2022-10-17T15:44:55;8.07;;;4.38;;
60006;SDS011;45863;50.336;3.536;2022-10-17T15:49:45;8.30;;;4.40;;
60006;SDS011;45863;50.336;3.536;2022-10-17T15:52:10;9.00;;;4.50;;
60006;SDS011;45863;50.336;3.536;2022-10-17T15:54:36;8.20;;;4.77;;
60006;SDS011;45863;50.336;3.536;2022-10-17T15:57:01;8.73;;;4.60;;
60006;SDS011;45863;50.336;3.536;2022-10-17T15:59:28;9.35;;;4.97;;
60006;SDS011;45863;50.336;3.536;2022-10-17T16:01:54;10.15;;;5.10;;
60006;SDS011;45863;50.336;3.536;2022-10-17T16:04:19;13.48;;;5.50;;
60006;SDS011;45863;50.336;3.536;2022-10-17T16:06:44;11.90;;;5.60;;
60006;SDS011;45863;50.336;3.536;2022-10-17T16:09:10;11.48;;;5.85;;
60006;SDS011;45863;50.336;3.536;2022-10-17T16:11:36;13.45;;;6.50;;
60006;SDS011;45863;50.336;3.536;2022-10-17T16:14:05;14.48;;;6.55;;
60006;SDS011;45863;50.336;3.536;2022-10-17T16:16:31;10.70;;;6.68;;
60006;SDS011;45863;50.336;3.536;2022-10-17T16:18:56;12.93;;;6.57;;
60006;SDS011;45863;50.336;3.536;2022-10-17T16:21:23;12.32;;;6.85;;
60006;SDS011;45863;50.336;3.536;2022-10-17T16:23:49;14.50;;;7.40;;
60006;SDS011;45863;50.336;3.536;2022-10-17T16:26:14;16.73;;;6.93;;
60006;SDS011;45863;50.336;3.536;2022-10-17T16:28:40;11.90;;;7.10;;
60006;SDS011;45863;50.336;3.536;2022-10-17T16:31:10;12.43;;;6.97;;
60006;SDS011;45863;50.336;3.536;2022-10-17T16:33:41;13.65;;;8.63;;
60006;SDS011;45863;50.336;3.536;2022-10-17T16:36:07;13.15;;;8.18;;
60006;SDS011;45863;50.336;3.536;2022-10-17T16:38:34;19.13;;;9.52;;
60006;SDS011;45863;50.336;3.536;2022-10-17T16:40:59;13.75;;;8.57;;
60006;SDS011;45863;50.336;3.536;2022-10-17T16:43:25;14.67;;;8.93;;